Barfleur — FNIE — position and weather

sailwx.info

Track history (hours):
 
Tides and Currents Weather Stations Pressure Air Temp Water Temp Dewpoint Dewpoint Depression Visibility Wind Speed Wind Dir Waves Ship Positions

Barfleur

Operator: Brittany Ferries

Last reported at 2017-Jan-18 15:34 UTC. Time now 2017-Jan-18 16:05 UTC.
Position N 49°39' W 001°37'.

Length 158 m; draft 5 m.

Type: Passenger vessel. MMSI: 227289000.

Date/timePositionNaut miles runAvg speedWind from/ knotsBaromVisibWave heightAir tempDewpointWater temp
2017-Jan-18 15:34N 49°39' W 001°37'0 0.0
2017-Jan-18 14:33N 49°39' W 001°37'0 0.0
2017-Jan-18 13:33N 49°39' W 001°37'0 0.0
2017-Jan-18 12:34N 49°39' W 001°37'1515.4
2017-Jan-18 11:33N 49°54' W 001°40'1717.0
2017-Jan-18 10:34N 50°11' W 001°45'1716.9
2017-Jan-18 09:33N 50°27' W 001°51'1515.3
2017-Jan-18 08:33N 50°42' W 001°58'1 1.3
2017-Jan-18 07:33N 50°42' W 001°59'1 1.5
2017-Jan-18 06:34N 50°42' W 001°57'1514.7
2017-Jan-18 05:34N 50°28' W 001°51'2713.7
2017-Jan-18 03:33N 50°01' W 001°44'1413.9
2017-Jan-18 02:34N 49°47' W 001°47'1 1.3
2017-Jan-18 01:34N 49°47' W 001°45'1 0.7
2017-Jan-18 00:34N 49°48' W 001°46'2 2.0
2017-Jan-17 23:33N 49°48' W 001°49'3 2.7
2017-Jan-17 22:33N 49°46' W 001°52'1111.5
2017-Jan-17 21:33N 49°40' W 001°37'1 1.1
2017-Jan-17 20:34N 49°39' W 001°37'0 0.3
2017-Jan-17 19:34N 49°39' W 001°37'0 0.0
2017-Jan-17 18:33N 49°39' W 001°37'0 0.0
2017-Jan-17 17:34N 49°39' W 001°37'0 0.0
2017-Jan-17 16:33N 49°39' W 001°37'0 0.0
2017-Jan-17 15:34N 49°39' W 001°37'0 0.0
2017-Jan-17 14:33N 49°39' W 001°37'0 0.0
2017-Jan-17 13:34N 49°39' W 001°37'0 0.5
2017-Jan-17 12:33N 49°39' W 001°37'1514.7
2017-Jan-17 11:34N 49°54' W 001°40'1818.2
2017-Jan-17 10:34N 50°12' W 001°45'1816.4
2017-Jan-17 09:29N 50°29' W 001°51'1415.0
2017-Jan-17 08:33N 50°42' W 001°57'1 1.3
2017-Jan-17 07:33N 50°42' W 001°59'0 0.0
2017-Jan-17 06:33N 50°42' W 001°59'0 0.0
2017-Jan-17 05:33N 50°42' W 001°59'0 0.0
2017-Jan-17 04:33N 50°42' W 001°59'0 0.0
2017-Jan-17 03:33N 50°42' W 001°59'0 0.0
2017-Jan-17 02:33N 50°42' W 001°59'0 0.0
2017-Jan-17 01:33N 50°42' W 001°59'0 0.0
2017-Jan-17 00:33N 50°42' W 001°59'0 0.0
2017-Jan-16 23:33N 50°42' W 001°59'0 0.0
2017-Jan-16 22:33N 50°42' W 001°59'0 0.0
2017-Jan-16 21:33N 50°42' W 001°59'1211.8
2017-Jan-16 20:33N 50°32' W 001°52'2617.9
2017-Jan-16 19:05N 50°06' W 001°45'816.0
2017-Jan-16 18:33N 49°57' W 001°44'1717.4
2017-Jan-16 17:34N 49°40' W 001°39'2 1.9
2017-Jan-16 16:33N 49°39' W 001°37'0 0.0
2017-Jan-16 15:33N 49°39' W 001°37'0 0.0
2017-Jan-16 14:33N 49°39' W 001°37'0 0.0
2017-Jan-16 13:33N 49°39' W 001°37'0 0.0
2017-Jan-16 12:33N 49°39' W 001°37'1515.0
2017-Jan-16 11:33N 49°54' W 001°40'1716.9
2017-Jan-16 10:34N 50°10' W 001°46'1817.0
2017-Jan-16 09:30N 50°28' W 001°50'1415.3
2017-Jan-16 08:33N 50°42' W 001°57'2 1.7
2017-Jan-16 07:34N 50°42' W 001°59'0 0.0
2017-Jan-16 06:33N 50°42' W 001°59'0 0.0
2017-Jan-16 05:34N 50°42' W 001°59'0 0.0
2017-Jan-16 04:34N 50°42' W 001°59'0 0.0
2017-Jan-16 03:34N 50°42' W 001°59'0 0.0
2017-Jan-16 02:33N 50°42' W 001°59'0 0.0
2017-Jan-16 01:34N 50°42' W 001°59'0 0.0
2017-Jan-16 00:34N 50°42' W 001°59'0 0.0
2017-Jan-15 23:33N 50°42' W 001°59'0 0.0
2017-Jan-15 22:34N 50°42' W 001°59'0 0.3
2017-Jan-15 21:34N 50°42' W 001°59'1514.9
2017-Jan-15 20:33N 50°28' W 001°52'2617.8
2017-Jan-15 19:07N 50°03' W 001°45'1017.6
2017-Jan-15 18:34N 49°53' W 001°42'1514.7
2017-Jan-15 17:33N 49°39' W 001°37'0 0.2
2017-Jan-15 16:33N 49°39' W 001°37'0 0.0
2017-Jan-15 15:33N 49°39' W 001°37'0 0.0
2017-Jan-15 14:33N 49°39' W 001°37'0 0.0
2017-Jan-15 13:33N 49°39' W 001°37'0 0.1
2017-Jan-15 12:33N 49°39' W 001°37'1312.9
2017-Jan-15 11:33N 49°51' W 001°43'1817.7
2017-Jan-15 10:33N 50°09' W 001°46'1817.2
2017-Jan-15 09:32N 50°26' W 001°50'1616.0
2017-Jan-15 08:33N 50°41' W 001°57'2 1.8
2017-Jan-15 07:34N 50°42' W 001°59'0 0.0
2017-Jan-15 06:33N 50°42' W 001°59'0 0.0
2017-Jan-15 05:33N 50°42' W 001°59'0 0.0
2017-Jan-15 04:34N 50°42' W 001°59'0 0.0
2017-Jan-15 03:33N 50°42' W 001°59'0 0.0
2017-Jan-15 02:33N 50°42' W 001°59'0 0.0
2017-Jan-15 01:33N 50°42' W 001°59'0 0.0
2017-Jan-15 00:34N 50°42' W 001°59'0 0.0
2017-Jan-14 23:33N 50°42' W 001°59'0 0.0
2017-Jan-14 22:33N 50°42' W 001°59'1 0.6
2017-Jan-14 21:34N 50°42' W 001°59'1515.1
2017-Jan-14 20:33N 50°28' W 001°49'2617.4
2017-Jan-14 19:04N 50°03' W 001°44'917.4
2017-Jan-14 18:34N 49°54' W 001°42'1515.3
2017-Jan-14 17:34N 49°39' W 001°37'0 0.2
2017-Jan-14 16:33N 49°39' W 001°37'0 0.0
2017-Jan-14 15:34N 49°39' W 001°37'0 0.0
2017-Jan-14 14:33N 49°39' W 001°37'0 0.0
2017-Jan-14 13:33N 49°39' W 001°37'0 0.0
2017-Jan-14 12:33N 49°39' W 001°37'1514.6
2017-Jan-14 11:33N 49°53' W 001°41'1817.9
2017-Jan-14 10:34N 50°10' W 001°49'1616.1
2017-Jan-14 09:33N 50°27' W 001°50'1615.8
2017-Jan-14 08:33N 50°41' W 001°57'2 1.7
2017-Jan-14 07:33N 50°42' W 001°59'0 0.0
2017-Jan-14 06:33N 50°42' W 001°59'0 0.0
2017-Jan-14 05:33N 50°42' W 001°59'0 0.0
2017-Jan-14 04:33N 50°42' W 001°59'0 0.0
2017-Jan-14 03:33N 50°42' W 001°59'0 0.0
2017-Jan-13 23:33N 50°42' W 001°59'0 0.0
2017-Jan-13 22:33N 50°42' W 001°59'6 6.2
2017-Jan-13 21:33N 50°37' W 001°54'3416.8
2017-Jan-13 19:32N 50°04' W 001°43'1616.2
2017-Jan-13 18:33N 49°48' W 001°41'10 9.8
2017-Jan-13 17:33N 49°39' W 001°37'0 0.1
2017-Jan-13 16:33N 49°39' W 001°37'0 0.0
2017-Jan-13 15:33N 49°39' W 001°37'0 0.0
2017-Jan-13 14:33N 49°39' W 001°37'0 0.0
2017-Jan-13 13:33N 49°39' W 001°37'0 0.2
2017-Jan-13 12:34N 49°39' W 001°37'1312.8
2017-Jan-13 11:33N 49°51' W 001°43'1818.0
2017-Jan-13 10:33N 50°09' W 001°48'1818.0
2017-Jan-13 09:33N 50°27' W 001°50'1615.9
2017-Jan-13 08:33N 50°42' W 001°57'1 1.3
2017-Jan-13 07:34N 50°42' W 001°59'2 1.6
2017-Jan-13 06:33N 50°42' W 001°57'1514.9
2017-Jan-13 05:33N 50°32' W 001°39'2 2.1
2017-Jan-13 04:32N 50°32' W 001°35'1010.3
2017-Jan-13 03:33N 50°36' W 001°50'2 1.7
2017-Jan-13 02:34N 50°36' W 001°47'2911.9
2017-Jan-13 00:07N 50°07' W 001°40'916.6
2017-Jan-12 23:34N 49°58' W 001°38'1616.1
2017-Jan-12 22:33N 49°42' W 001°36'3 3.0
2017-Jan-12 21:33N 49°39' W 001°37'0 0.0
2017-Jan-12 20:33N 49°39' W 001°37'0 0.0
2017-Jan-12 19:33N 49°39' W 001°37'0 0.0
2017-Jan-12 18:33N 49°39' W 001°37'0 0.0
2017-Jan-12 17:33N 49°39' W 001°37'0 0.0
2017-Jan-12 16:33N 49°39' W 001°37'0 0.0
2017-Jan-12 15:33N 49°39' W 001°37'0 0.0
2017-Jan-12 14:33N 49°39' W 001°37'0 0.0
2017-Jan-12 13:33N 49°39' W 001°37'0 0.0
2017-Jan-12 12:33N 49°39' W 001°37'1313.0
2017-Jan-12 11:34N 49°51' W 001°43'1818.1
2017-Jan-12 10:33N 50°09' W 001°47'2018.5
2017-Jan-12 09:29N 50°29' W 001°52'1415.0
2017-Jan-12 08:33N 50°42' W 001°58'1 1.2
2017-Jan-12 07:33N 50°42' W 001°59'1 1.2
2017-Jan-12 06:33N 50°42' W 001°58'4515.0
2017-Jan-12 03:33N 49°58' W 001°44'1414.2
2017-Jan-12 02:33N 49°44' W 001°39'1 1.1
2017-Jan-12 01:33N 49°44' W 001°37'2 1.6
2017-Jan-12 00:34N 49°43' W 001°35'2 1.9
2017-Jan-11 23:33N 49°42' W 001°33'1 1.3
2017-Jan-11 22:33N 49°43' W 001°33'4 4.3
2017-Jan-11 21:33N 49°40' W 001°37'1 0.8
2017-Jan-11 20:33N 49°39' W 001°37'0 0.0
2017-Jan-11 19:33N 49°39' W 001°37'0 0.0
2017-Jan-11 18:33N 49°39' W 001°37'0 0.0
2017-Jan-11 17:34N 49°39' W 001°37'0 0.0
2017-Jan-11 16:33N 49°39' W 001°37'0 0.0
2017-Jan-11 15:33N 49°39' W 001°37'0 0.0
2017-Jan-11 14:33N 49°39' W 001°37'0 0.0
2017-Jan-11 13:33N 49°39' W 001°37'0 0.0
2017-Jan-11 12:33N 49°39' W 001°37'1414.1
2017-Jan-11 11:33N 49°52' W 001°44'1717.1
2017-Jan-11 10:34N 50°09' W 001°49'2016.9
2017-Jan-11 09:23N 50°29' W 001°52'1315.9
2017-Jan-11 08:33N 50°41' W 001°57'2 1.7
2017-Jan-11 07:33N 50°42' W 001°59'1 1.0
2017-Jan-11 06:33N 50°42' W 001°58'1514.4
2017-Jan-11 05:31N 50°28' W 001°52'2814.4
2017-Jan-11 03:34N 50°00' W 001°43'1414.4
2017-Jan-11 02:34N 49°46' W 001°40'4 3.9
2017-Jan-11 01:33N 49°42' W 001°38'1 1.1
2017-Jan-11 00:33N 49°43' W 001°37'2 1.7
2017-Jan-10 23:33N 49°43' W 001°34'2 1.6
2017-Jan-10 22:34N 49°44' W 001°32'5 4.8
2017-Jan-10 21:33N 49°40' W 001°36'1 1.1
2017-Jan-10 20:33N 49°39' W 001°37'0 0.0
2017-Jan-10 19:33N 49°39' W 001°37'0 0.0
2017-Jan-10 18:33N 49°39' W 001°37'0 0.0
2017-Jan-10 17:33N 49°39' W 001°37'0 0.0
2017-Jan-10 16:34N 49°39' W 001°37'0 0.0
2017-Jan-10 15:33N 49°39' W 001°37'0 0.0
2017-Jan-10 14:33N 49°39' W 001°37'0 0.0
2017-Jan-10 13:33N 49°39' W 001°37'0 0.0
2017-Jan-10 12:33N 49°39' W 001°37'1413.6
2017-Jan-10 11:33N 49°52' W 001°44'1817.9
2017-Jan-10 10:33N 50°09' W 001°49'1918.5
2017-Jan-10 09:32N 50°28' W 001°52'1515.1
2017-Jan-10 08:34N 50°42' W 001°59'1 0.6
2017-Jan-10 07:33N 50°42' W 001°59'0 0.0
2017-Jan-10 06:34N 50°42' W 001°59'0 0.0
2017-Jan-10 05:34N 50°42' W 001°59'0 0.0
2017-Jan-10 04:33N 50°42' W 001°59'0 0.0
2017-Jan-10 03:34N 50°42' W 001°59'0 0.0
2017-Jan-10 02:33N 50°42' W 001°59'0 0.0
2017-Jan-10 01:33N 50°42' W 001°59'0 0.0
2017-Jan-10 00:33N 50°42' W 001°59'0 0.0
2017-Jan-09 23:34N 50°42' W 001°59'0 0.0
2017-Jan-09 22:34N 50°42' W 001°59'1 0.9
2017-Jan-09 21:34N 50°42' W 001°58'1514.6
2017-Jan-09 20:34N 50°28' W 001°51'2217.4
2017-Jan-09 19:19N 50°07' W 001°46'1316.7
2017-Jan-09 18:33N 49°54' W 001°42'1615.5
2017-Jan-09 17:33N 49°39' W 001°37'1 0.5
2017-Jan-09 16:33N 49°39' W 001°37'0 0.0
2017-Jan-09 15:33N 49°39' W 001°37'0 0.0
2017-Jan-09 14:33N 49°39' W 001°37'0 0.0
2017-Jan-09 13:33N 49°39' W 001°37'0 0.0
2017-Jan-09 12:33N 49°39' W 001°37'1313.2
2017-Jan-09 11:33N 49°51' W 001°43'1818.0
2017-Jan-09 10:33N 50°09' W 001°46'2017.9
2017-Jan-09 09:25N 50°29' W 001°52'1315.3
2017-Jan-09 08:34N 50°42' W 001°57'1 1.4
2017-Jan-09 07:34N 50°42' W 001°59'0 0.0
2017-Jan-09 06:34N 50°42' W 001°59'0 0.0
2017-Jan-09 05:33N 50°42' W 001°59'0 0.0
2017-Jan-09 04:34N 50°42' W 001°59'0 0.0
2017-Jan-09 03:34N 50°42' W 001°59'0 0.0
2017-Jan-09 02:34N 50°42' W 001°59'0 0.0
2017-Jan-09 01:33N 50°42' W 001°59'0 0.0
2017-Jan-09 00:34N 50°42' W 001°59'0 0.0
2017-Jan-08 23:33N 50°42' W 001°59'0 0.0
2017-Jan-08 22:34N 50°42' W 001°59'0 0.1
2017-Jan-08 21:34N 50°42' W 001°59'1111.0
2017-Jan-08 20:33N 50°32' W 001°52'3618.1
2017-Jan-08 18:33N 49°57' W 001°42'1717.5
2017-Jan-08 17:33N 49°40' W 001°36'1 1.0
2017-Jan-08 16:34N 49°39' W 001°37'  
Track history (hours):
 
Tides and Currents Weather Stations Pressure Air Temp Water Temp Dewpoint Dewpoint Depression Visibility Wind Speed Wind Dir Waves Ship Positions

Barfleur

Operator: Brittany Ferries

Last reported at 2017-Jan-18 15:34 UTC. Time now 2017-Jan-18 16:05 UTC.
Position N 49°39' W 001°37'.

Length 158 m; draft 5 m.

Type: Passenger vessel. MMSI: 227289000.

Date/timePositionNaut miles runAvg speedWind from/ knotsBaromVisibWave heightAir tempDewpointWater temp
2017-Jan-18 15:34N 49°39' W 001°37'0 0.0
2017-Jan-18 14:33N 49°39' W 001°37'0 0.0
2017-Jan-18 13:33N 49°39' W 001°37'0 0.0
2017-Jan-18 12:34N 49°39' W 001°37'1515.4
2017-Jan-18 11:33N 49°54' W 001°40'1717.0
2017-Jan-18 10:34N 50°11' W 001°45'1716.9
2017-Jan-18 09:33N 50°27' W 001°51'1515.3
2017-Jan-18 08:33N 50°42' W 001°58'1 1.3
2017-Jan-18 07:33N 50°42' W 001°59'1 1.5
2017-Jan-18 06:34N 50°42' W 001°57'1514.7
2017-Jan-18 05:34N 50°28' W 001°51'2713.7
2017-Jan-18 03:33N 50°01' W 001°44'1413.9
2017-Jan-18 02:34N 49°47' W 001°47'1 1.3
2017-Jan-18 01:34N 49°47' W 001°45'1 0.7
2017-Jan-18 00:34N 49°48' W 001°46'2 2.0
2017-Jan-17 23:33N 49°48' W 001°49'3 2.7
2017-Jan-17 22:33N 49°46' W 001°52'1111.5
2017-Jan-17 21:33N 49°40' W 001°37'1 1.1
2017-Jan-17 20:34N 49°39' W 001°37'0 0.3
2017-Jan-17 19:34N 49°39' W 001°37'0 0.0
2017-Jan-17 18:33N 49°39' W 001°37'0 0.0
2017-Jan-17 17:34N 49°39' W 001°37'0 0.0
2017-Jan-17 16:33N 49°39' W 001°37'0 0.0
2017-Jan-17 15:34N 49°39' W 001°37'0 0.0
2017-Jan-17 14:33N 49°39' W 001°37'0 0.0
2017-Jan-17 13:34N 49°39' W 001°37'0 0.5
2017-Jan-17 12:33N 49°39' W 001°37'1514.7
2017-Jan-17 11:34N 49°54' W 001°40'1818.2
2017-Jan-17 10:34N 50°12' W 001°45'1816.4
2017-Jan-17 09:29N 50°29' W 001°51'1415.0
2017-Jan-17 08:33N 50°42' W 001°57'1 1.3
2017-Jan-17 07:33N 50°42' W 001°59'0 0.0
2017-Jan-17 06:33N 50°42' W 001°59'0 0.0
2017-Jan-17 05:33N 50°42' W 001°59'0 0.0
2017-Jan-17 04:33N 50°42' W 001°59'0 0.0
2017-Jan-17 03:33N 50°42' W 001°59'0 0.0
2017-Jan-17 02:33N 50°42' W 001°59'0 0.0
2017-Jan-17 01:33N 50°42' W 001°59'0 0.0
2017-Jan-17 00:33N 50°42' W 001°59'0 0.0
2017-Jan-16 23:33N 50°42' W 001°59'0 0.0
2017-Jan-16 22:33N 50°42' W 001°59'0 0.0
2017-Jan-16 21:33N 50°42' W 001°59'1211.8
2017-Jan-16 20:33N 50°32' W 001°52'2617.9
2017-Jan-16 19:05N 50°06' W 001°45'816.0
2017-Jan-16 18:33N 49°57' W 001°44'1717.4
2017-Jan-16 17:34N 49°40' W 001°39'2 1.9
2017-Jan-16 16:33N 49°39' W 001°37'0 0.0
2017-Jan-16 15:33N 49°39' W 001°37'0 0.0
2017-Jan-16 14:33N 49°39' W 001°37'0 0.0
2017-Jan-16 13:33N 49°39' W 001°37'0 0.0
2017-Jan-16 12:33N 49°39' W 001°37'1515.0
2017-Jan-16 11:33N 49°54' W 001°40'1716.9
2017-Jan-16 10:34N 50°10' W 001°46'1817.0
2017-Jan-16 09:30N 50°28' W 001°50'1415.3
2017-Jan-16 08:33N 50°42' W 001°57'2 1.7
2017-Jan-16 07:34N 50°42' W 001°59'0 0.0
2017-Jan-16 06:33N 50°42' W 001°59'0 0.0
2017-Jan-16 05:34N 50°42' W 001°59'0 0.0
2017-Jan-16 04:34N 50°42' W 001°59'0 0.0
2017-Jan-16 03:34N 50°42' W 001°59'0 0.0
2017-Jan-16 02:33N 50°42' W 001°59'0 0.0
2017-Jan-16 01:34N 50°42' W 001°59'0 0.0
2017-Jan-16 00:34N 50°42' W 001°59'0 0.0
2017-Jan-15 23:33N 50°42' W 001°59'0 0.0
2017-Jan-15 22:34N 50°42' W 001°59'0 0.3
2017-Jan-15 21:34N 50°42' W 001°59'1514.9
2017-Jan-15 20:33N 50°28' W 001°52'2617.8
2017-Jan-15 19:07N 50°03' W 001°45'1017.6
2017-Jan-15 18:34N 49°53' W 001°42'1514.7
2017-Jan-15 17:33N 49°39' W 001°37'0 0.2
2017-Jan-15 16:33N 49°39' W 001°37'0 0.0
2017-Jan-15 15:33N 49°39' W 001°37'0 0.0
2017-Jan-15 14:33N 49°39' W 001°37'0 0.0
2017-Jan-15 13:33N 49°39' W 001°37'0 0.1
2017-Jan-15 12:33N 49°39' W 001°37'1312.9
2017-Jan-15 11:33N 49°51' W 001°43'1817.7
2017-Jan-15 10:33N 50°09' W 001°46'1817.2
2017-Jan-15 09:32N 50°26' W 001°50'1616.0
2017-Jan-15 08:33N 50°41' W 001°57'2 1.8
2017-Jan-15 07:34N 50°42' W 001°59'0 0.0
2017-Jan-15 06:33N 50°42' W 001°59'0 0.0
2017-Jan-15 05:33N 50°42' W 001°59'0 0.0
2017-Jan-15 04:34N 50°42' W 001°59'0 0.0
2017-Jan-15 03:33N 50°42' W 001°59'0 0.0
2017-Jan-15 02:33N 50°42' W 001°59'0 0.0
2017-Jan-15 01:33N 50°42' W 001°59'0 0.0
2017-Jan-15 00:34N 50°42' W 001°59'0 0.0
2017-Jan-14 23:33N 50°42' W 001°59'0 0.0
2017-Jan-14 22:33N 50°42' W 001°59'1 0.6
2017-Jan-14 21:34N 50°42' W 001°59'1515.1
2017-Jan-14 20:33N 50°28' W 001°49'2617.4
2017-Jan-14 19:04N 50°03' W 001°44'917.4
2017-Jan-14 18:34N 49°54' W 001°42'1515.3
2017-Jan-14 17:34N 49°39' W 001°37'0 0.2
2017-Jan-14 16:33N 49°39' W 001°37'0 0.0
2017-Jan-14 15:34N 49°39' W 001°37'0 0.0
2017-Jan-14 14:33N 49°39' W 001°37'0 0.0
2017-Jan-14 13:33N 49°39' W 001°37'0 0.0
2017-Jan-14 12:33N 49°39' W 001°37'1514.6
2017-Jan-14 11:33N 49°53' W 001°41'1817.9
2017-Jan-14 10:34N 50°10' W 001°49'1616.1
2017-Jan-14 09:33N 50°27' W 001°50'1615.8
2017-Jan-14 08:33N 50°41' W 001°57'2 1.7
2017-Jan-14 07:33N 50°42' W 001°59'0 0.0
2017-Jan-14 06:33N 50°42' W 001°59'0 0.0
2017-Jan-14 05:33N 50°42' W 001°59'0 0.0
2017-Jan-14 04:33N 50°42' W 001°59'0 0.0
2017-Jan-14 03:33N 50°42' W 001°59'0 0.0
2017-Jan-13 23:33N 50°42' W 001°59'0 0.0
2017-Jan-13 22:33N 50°42' W 001°59'6 6.2
2017-Jan-13 21:33N 50°37' W 001°54'3416.8
2017-Jan-13 19:32N 50°04' W 001°43'1616.2
2017-Jan-13 18:33N 49°48' W 001°41'10 9.8
2017-Jan-13 17:33N 49°39' W 001°37'0 0.1
2017-Jan-13 16:33N 49°39' W 001°37'0 0.0
2017-Jan-13 15:33N 49°39' W 001°37'0 0.0
2017-Jan-13 14:33N 49°39' W 001°37'0 0.0
2017-Jan-13 13:33N 49°39' W 001°37'0 0.2
2017-Jan-13 12:34N 49°39' W 001°37'1312.8
2017-Jan-13 11:33N 49°51' W 001°43'1818.0
2017-Jan-13 10:33N 50°09' W 001°48'1818.0
2017-Jan-13 09:33N 50°27' W 001°50'1615.9
2017-Jan-13 08:33N 50°42' W 001°57'1 1.3
2017-Jan-13 07:34N 50°42' W 001°59'2 1.6
2017-Jan-13 06:33N 50°42' W 001°57'1514.9
2017-Jan-13 05:33N 50°32' W 001°39'2 2.1
2017-Jan-13 04:32N 50°32' W 001°35'1010.3
2017-Jan-13 03:33N 50°36' W 001°50'2 1.7
2017-Jan-13 02:34N 50°36' W 001°47'2911.9
2017-Jan-13 00:07N 50°07' W 001°40'916.6
2017-Jan-12 23:34N 49°58' W 001°38'1616.1
2017-Jan-12 22:33N 49°42' W 001°36'3 3.0
2017-Jan-12 21:33N 49°39' W 001°37'0 0.0
2017-Jan-12 20:33N 49°39' W 001°37'0 0.0
2017-Jan-12 19:33N 49°39' W 001°37'0 0.0
2017-Jan-12 18:33N 49°39' W 001°37'0 0.0
2017-Jan-12 17:33N 49°39' W 001°37'0 0.0
2017-Jan-12 16:33N 49°39' W 001°37'0 0.0
2017-Jan-12 15:33N 49°39' W 001°37'0 0.0
2017-Jan-12 14:33N 49°39' W 001°37'0 0.0
2017-Jan-12 13:33N 49°39' W 001°37'0 0.0
2017-Jan-12 12:33N 49°39' W 001°37'1313.0
2017-Jan-12 11:34N 49°51' W 001°43'1818.1
2017-Jan-12 10:33N 50°09' W 001°47'2018.5
2017-Jan-12 09:29N 50°29' W 001°52'1415.0
2017-Jan-12 08:33N 50°42' W 001°58'1 1.2
2017-Jan-12 07:33N 50°42' W 001°59'1 1.2
2017-Jan-12 06:33N 50°42' W 001°58'4515.0
2017-Jan-12 03:33N 49°58' W 001°44'1414.2
2017-Jan-12 02:33N 49°44' W 001°39'1 1.1
2017-Jan-12 01:33N 49°44' W 001°37'2 1.6
2017-Jan-12 00:34N 49°43' W 001°35'2 1.9
2017-Jan-11 23:33N 49°42' W 001°33'1 1.3
2017-Jan-11 22:33N 49°43' W 001°33'4 4.3
2017-Jan-11 21:33N 49°40' W 001°37'1 0.8
2017-Jan-11 20:33N 49°39' W 001°37'0 0.0
2017-Jan-11 19:33N 49°39' W 001°37'0 0.0
2017-Jan-11 18:33N 49°39' W 001°37'0 0.0
2017-Jan-11 17:34N 49°39' W 001°37'0 0.0
2017-Jan-11 16:33N 49°39' W 001°37'0 0.0
2017-Jan-11 15:33N 49°39' W 001°37'0 0.0
2017-Jan-11 14:33N 49°39' W 001°37'0 0.0
2017-Jan-11 13:33N 49°39' W 001°37'0 0.0
2017-Jan-11 12:33N 49°39' W 001°37'1414.1
2017-Jan-11 11:33N 49°52' W 001°44'1717.1
2017-Jan-11 10:34N 50°09' W 001°49'2016.9
2017-Jan-11 09:23N 50°29' W 001°52'1315.9
2017-Jan-11 08:33N 50°41' W 001°57'2 1.7
2017-Jan-11 07:33N 50°42' W 001°59'1 1.0
2017-Jan-11 06:33N 50°42' W 001°58'1514.4
2017-Jan-11 05:31N 50°28' W 001°52'2814.4
2017-Jan-11 03:34N 50°00' W 001°43'1414.4
2017-Jan-11 02:34N 49°46' W 001°40'4 3.9
2017-Jan-11 01:33N 49°42' W 001°38'1 1.1
2017-Jan-11 00:33N 49°43' W 001°37'2 1.7
2017-Jan-10 23:33N 49°43' W 001°34'2 1.6
2017-Jan-10 22:34N 49°44' W 001°32'5 4.8
2017-Jan-10 21:33N 49°40' W 001°36'1 1.1
2017-Jan-10 20:33N 49°39' W 001°37'0 0.0
2017-Jan-10 19:33N 49°39' W 001°37'0 0.0
2017-Jan-10 18:33N 49°39' W 001°37'0 0.0
2017-Jan-10 17:33N 49°39' W 001°37'0 0.0
2017-Jan-10 16:34N 49°39' W 001°37'0 0.0
2017-Jan-10 15:33N 49°39' W 001°37'0 0.0
2017-Jan-10 14:33N 49°39' W 001°37'0 0.0
2017-Jan-10 13:33N 49°39' W 001°37'0 0.0
2017-Jan-10 12:33N 49°39' W 001°37'1413.6
2017-Jan-10 11:33N 49°52' W 001°44'1817.9
2017-Jan-10 10:33N 50°09' W 001°49'1918.5
2017-Jan-10 09:32N 50°28' W 001°52'1515.1
2017-Jan-10 08:34N 50°42' W 001°59'1 0.6
2017-Jan-10 07:33N 50°42' W 001°59'0 0.0
2017-Jan-10 06:34N 50°42' W 001°59'0 0.0
2017-Jan-10 05:34N 50°42' W 001°59'0 0.0
2017-Jan-10 04:33N 50°42' W 001°59'0 0.0
2017-Jan-10 03:34N 50°42' W 001°59'0 0.0
2017-Jan-10 02:33N 50°42' W 001°59'0 0.0
2017-Jan-10 01:33N 50°42' W 001°59'0 0.0
2017-Jan-10 00:33N 50°42' W 001°59'0 0.0
2017-Jan-09 23:34N 50°42' W 001°59'0 0.0
2017-Jan-09 22:34N 50°42' W 001°59'1 0.9
2017-Jan-09 21:34N 50°42' W 001°58'1514.6
2017-Jan-09 20:34N 50°28' W 001°51'2217.4
2017-Jan-09 19:19N 50°07' W 001°46'1316.7
2017-Jan-09 18:33N 49°54' W 001°42'1615.5
2017-Jan-09 17:33N 49°39' W 001°37'1 0.5
2017-Jan-09 16:33N 49°39' W 001°37'0 0.0
2017-Jan-09 15:33N 49°39' W 001°37'0 0.0
2017-Jan-09 14:33N 49°39' W 001°37'0 0.0
2017-Jan-09 13:33N 49°39' W 001°37'0 0.0
2017-Jan-09 12:33N 49°39' W 001°37'1313.2
2017-Jan-09 11:33N 49°51' W 001°43'1818.0
2017-Jan-09 10:33N 50°09' W 001°46'2017.9
2017-Jan-09 09:25N 50°29' W 001°52'1315.3
2017-Jan-09 08:34N 50°42' W 001°57'1 1.4
2017-Jan-09 07:34N 50°42' W 001°59'0 0.0
2017-Jan-09 06:34N 50°42' W 001°59'0 0.0
2017-Jan-09 05:33N 50°42' W 001°59'0 0.0
2017-Jan-09 04:34N 50°42' W 001°59'0 0.0
2017-Jan-09 03:34N 50°42' W 001°59'0 0.0
2017-Jan-09 02:34N 50°42' W 001°59'0 0.0
2017-Jan-09 01:33N 50°42' W 001°59'0 0.0
2017-Jan-09 00:34N 50°42' W 001°59'0 0.0
2017-Jan-08 23:33N 50°42' W 001°59'0 0.0
2017-Jan-08 22:34N 50°42' W 001°59'0 0.1
2017-Jan-08 21:34N 50°42' W 001°59'1111.0
2017-Jan-08 20:33N 50°32' W 001°52'3618.1
2017-Jan-08 18:33N 49°57' W 001°42'1717.5
2017-Jan-08 17:33N 49°40' W 001°36'1 1.0
2017-Jan-08 16:34N 49°39' W 001°37'  

Dump ship's entire track history